Time;durP1;ratioP1;P1;durP2;ratioP2;P2;SDS_P1;SDS_P2;PMS_P1;PMS_P2;Temp;Humidity;BMP_temperature;BMP_pressure;BME280_temperature;BME280_humidity;BME280_pressure;Samples;Min_cycle;Max_cycle;Signal;HPM_P1;HPM_P2
2021/10/22 00:13:14;;;;;;;0.15;0.15;;;8.10;99.90;;;;;;5064029;28;20035;-70
2021/10/22 00:15:52;;;;;;;0.10;0.10;;;8.10;99.90;;;;;;5072066;28;20523;-70
2021/10/22 00:18:20;;;;;;;0.10;0.10;;;8.10;99.90;;;;;;5060566;28;20064;-69
2021/10/22 00:20:47;;;;;;;0.00;0.00;;;8.00;99.90;;;;;;5062986;28;20055;-69
2021/10/22 00:23:13;;;;;;;0.00;0.00;;;8.00;99.90;;;;;;5059329;28;20434;-70
2021/10/22 00:25:38;;;;;;;0.00;0.00;;;8.00;99.90;;;;;;5065062;28;20115;-69
2021/10/22 00:28:04;;;;;;;0.00;0.00;;;8.00;99.90;;;;;;5074506;28;20429;-69
2021/10/22 00:30:29;;;;;;;1.13;0.70;;;8.00;99.90;;;;;;5049225;28;20068;-69
2021/10/22 00:32:55;;;;;;;0.30;0.30;;;8.00;99.90;;;;;;5053858;28;20033;-70
2021/10/22 00:35:20;;;;;;;14.80;0.52;;;7.90;99.90;;;;;;5069160;28;20043;-69
2021/10/22 00:37:46;;;;;;;0.00;0.00;;;7.90;99.90;;;;;;5069589;28;20066;-69
2021/10/22 00:40:15;;;;;;;0.00;0.00;;;7.90;99.90;;;;;;5069953;28;20029;-70
2021/10/22 00:42:40;;;;;;;0.03;0.03;;;8.00;99.90;;;;;;5062525;28;20388;-70
2021/10/22 00:45:07;;;;;;;0.00;0.00;;;7.90;99.90;;;;;;5067880;28;20023;-69
2021/10/22 00:47:33;;;;;;;0.00;0.00;;;7.90;99.90;;;;;;5073997;28;20486;-70
2021/10/22 00:49:58;;;;;;;0.00;0.00;;;7.90;99.90;;;;;;5064503;28;20032;-71
2021/10/22 00:52:27;;;;;;;0.00;0.00;;;7.90;99.90;;;;;;5066512;28;20050;-70
2021/10/22 00:54:54;;;;;;;0.00;0.00;;;7.90;99.90;;;;;;5070308;28;20069;-70
2021/10/22 00:57:19;;;;;;;0.32;0.32;;;7.90;99.90;;;;;;5068319;28;20024;-70
2021/10/22 00:59:46;;;;;;;0.00;0.00;;;7.90;99.90;;;;;;5060185;28;20119;-70
2021/10/22 01:02:12;;;;;;;0.00;0.00;;;7.90;99.90;;;;;;5067490;28;20052;-69
2021/10/22 01:04:39;;;;;;;0.00;0.00;;;7.90;99.90;;;;;;5070203;28;20094;-70
2021/10/22 01:07:06;;;;;;;0.82;0.82;;;7.90;99.90;;;;;;5069894;28;20099;-70
2021/10/22 01:09:31;;;;;;;0.00;0.00;;;7.90;99.90;;;;;;5056457;28;20052;-70
2021/10/22 01:11:58;;;;;;;0.55;0.55;;;7.90;99.90;;;;;;5063435;28;20470;-69
2021/10/22 01:14:23;;;;;;;0.65;0.30;;;7.80;99.90;;;;;;5059679;28;20032;-69
2021/10/22 01:16:49;;;;;;;4.40;0.90;;;7.80;99.90;;;;;;5070195;28;20490;-69
2021/10/22 01:19:16;;;;;;;0.47;0.47;;;7.80;99.90;;;;;;5061140;28;20028;-69
2021/10/22 01:21:43;;;;;;;0.28;0.28;;;7.80;99.90;;;;;;5062528;28;20025;-69
2021/10/22 01:24:09;;;;;;;0.00;0.00;;;7.80;99.90;;;;;;5067895;28;20488;-69
2021/10/22 01:26:35;;;;;;;0.10;0.10;;;7.80;99.90;;;;;;5060614;28;20036;-70
2021/10/22 01:29:00;;;;;;;0.57;0.50;;;7.80;99.90;;;;;;5060360;28;20028;-69
2021/10/22 01:31:27;;;;;;;0.08;0.08;;;7.80;99.90;;;;;;5061857;28;20383;-69
2021/10/22 01:33:54;;;;;;;0.00;0.00;;;7.80;99.90;;;;;;5063927;28;20082;-70
2021/10/22 01:36:19;;;;;;;11.40;2.10;;;7.80;99.90;;;;;;5058510;28;20051;-70
2021/10/22 01:38:46;;;;;;;0.40;0.40;;;7.80;99.90;;;;;;5068385;28;20032;-69
2021/10/22 01:41:13;;;;;;;0.00;0.00;;;7.80;99.90;;;;;;5061843;28;20120;-69
2021/10/22 01:43:41;;;;;;;0.00;0.00;;;7.70;99.90;;;;;;5055563;28;20031;-69
2021/10/22 01:46:06;;;;;;;0.00;0.00;;;7.70;99.90;;;;;;5068973;28;20048;-70
2021/10/22 01:48:32;;;;;;;0.10;0.10;;;7.70;99.90;;;;;;5069653;28;20593;-69
2021/10/22 01:50:57;;;;;;;0.22;0.22;;;7.80;99.90;;;;;;5056946;28;20475;-69
2021/10/22 01:53:23;;;;;;;0.28;0.28;;;7.80;99.90;;;;;;5060711;28;20039;-69
2021/10/22 01:55:48;;;;;;;0.03;0.03;;;7.80;99.90;;;;;;5068431;28;20537;-70
2021/10/22 01:58:14;;;;;;;0.00;0.00;;;7.80;99.90;;;;;;5065126;28;20055;-70
2021/10/22 02:00:40;;;;;;;4.38;0.82;;;7.80;99.90;;;;;;5059187;28;20033;-69
2021/10/22 02:03:05;;;;;;;0.15;0.15;;;7.80;99.90;;;;;;5065987;28;20079;-69
2021/10/22 02:05:32;;;;;;;26.75;0.65;;;7.80;99.90;;;;;;5068710;28;20504;-69
2021/10/22 02:07:57;;;;;;;1.08;0.65;;;7.80;99.90;;;;;;5069397;28;20460;-69
2021/10/22 02:10:23;;;;;;;0.00;0.00;;;7.80;99.90;;;;;;5067115;28;20024;-70
2021/10/22 02:12:48;;;;;;;0.00;0.00;;;7.80;99.90;;;;;;5068420;28;20478;-70
2021/10/22 02:15:13;;;;;;;0.25;0.25;;;7.80;99.90;;;;;;5058589;28;20033;-68
2021/10/22 02:17:39;;;;;;;0.28;0.28;;;7.80;99.90;;;;;;5068998;28;20074;-70
2021/10/22 02:20:06;;;;;;;0.20;0.20;;;7.70;99.90;;;;;;5068093;28;20025;-70
2021/10/22 02:22:31;;;;;;;0.25;0.25;;;7.70;99.90;;;;;;5069492;28;20031;-69
2021/10/22 02:24:57;;;;;;;0.00;0.00;;;7.80;99.90;;;;;;5063062;28;20048;-70
2021/10/22 02:27:22;;;;;;;2.47;0.95;;;7.70;99.90;;;;;;5068619;28;20136;-69
2021/10/22 02:29:48;;;;;;;0.00;0.00;;;7.70;99.90;;;;;;5068378;28;20035;-69
2021/10/22 02:32:14;;;;;;;0.30;0.30;;;7.80;99.90;;;;;;5066884;28;20107;-70
2021/10/22 02:34:39;;;;;;;0.25;0.25;;;7.70;99.90;;;;;;5061441;28;20024;-70
2021/10/22 02:37:05;;;;;;;0.20;0.20;;;7.80;99.90;;;;;;5059444;28;20078;-70
2021/10/22 02:39:33;;;;;;;0.70;0.70;;;7.80;99.90;;;;;;5067996;28;20143;-70
2021/10/22 02:42:00;;;;;;;0.00;0.00;;;7.80;99.90;;;;;;5068558;28;20057;-70
2021/10/22 02:44:26;;;;;;;0.08;0.08;;;7.80;99.90;;;;;;5059690;28;20128;-71
2021/10/22 02:46:51;;;;;;;0.00;0.00;;;7.80;99.90;;;;;;5064699;28;20103;-69
2021/10/22 02:49:16;;;;;;;0.20;0.20;;;7.90;99.90;;;;;;5067287;28;20475;-70
2021/10/22 02:51:42;;;;;;;0.73;0.57;;;7.90;99.90;;;;;;5068838;28;20043;-69
2021/10/22 02:54:08;;;;;;;0.00;0.00;;;7.80;99.90;;;;;;5065295;28;20029;-69
2021/10/22 02:56:33;;;;;;;0.00;0.00;;;7.80;99.90;;;;;;5066524;28;20019;-70
2021/10/22 02:58:58;;;;;;;0.00;0.00;;;7.80;99.90;;;;;;5051410;28;20028;-69
2021/10/22 03:01:24;;;;;;;0.00;0.00;;;7.80;99.90;;;;;;5053870;28;20036;-70
2021/10/22 03:03:49;;;;;;;5.28;1.08;;;7.80;99.90;;;;;;5063149;28;20494;-70
2021/10/22 03:06:15;;;;;;;0.10;0.10;;;7.90;99.90;;;;;;5053360;28;20025;-69
2021/10/22 03:08:41;;;;;;;0.00;0.00;;;7.90;99.90;;;;;;5048716;28;20407;-70
2021/10/22 03:11:06;;;;;;;0.00;0.00;;;7.90;99.90;;;;;;5067109;28;20452;-70
2021/10/22 03:13:32;;;;;;;0.38;0.38;;;7.90;99.90;;;;;;5067749;28;20399;-70
2021/10/22 03:15:57;;;;;;;0.00;0.00;;;7.90;99.90;;;;;;5058737;28;20394;-69
2021/10/22 03:18:22;;;;;;;0.10;0.10;;;7.90;99.90;;;;;;5049508;28;20028;-70
2021/10/22 03:20:48;;;;;;;0.08;0.08;;;7.80;99.90;;;;;;5066961;28;20055;-70
2021/10/22 03:23:13;;;;;;;0.52;0.52;;;7.80;99.90;;;;;;5066094;28;20443;-70
2021/10/22 03:25:39;;;;;;;2.30;0.90;;;7.90;99.90;;;;;;5064603;28;20029;-69
2021/10/22 03:28:05;;;;;;;0.10;0.10;;;7.90;99.90;;;;;;5068676;28;20463;-70
2021/10/22 03:30:34;;;;;;;5.90;0.75;;;7.90;99.90;;;;;;5056381;28;20028;-70
2021/10/22 03:33:01;;;;;;;0.05;0.05;;;7.90;99.90;;;;;;5068020;28;20028;-70
2021/10/22 03:35:26;;;;;;;0.00;0.00;;;7.90;99.90;;;;;;5059005;28;20025;-69
2021/10/22 03:37:53;;;;;;;0.10;0.10;;;7.90;99.90;;;;;;5068603;28;20479;-70
2021/10/22 03:40:19;;;;;;;0.00;0.00;;;7.90;99.90;;;;;;5057454;28;20020;-70
2021/10/22 03:42:45;;;;;;;5.38;0.68;;;7.90;99.90;;;;;;5060988;28;20017;-70
2021/10/22 03:45:11;;;;;;;0.00;0.00;;;7.90;99.90;;;;;;5072528;28;20158;-70
2021/10/22 03:47:37;;;;;;;1.35;0.55;;;7.90;99.90;;;;;;5074767;28;20032;-69
2021/10/22 03:50:03;;;;;;;0.10;0.10;;;7.90;99.90;;;;;;5068135;28;20652;-69
2021/10/22 03:52:28;;;;;;;0.20;0.20;;;7.90;99.90;;;;;;5069033;28;20391;-70
2021/10/22 03:54:54;;;;;;;0.00;0.00;;;7.90;99.90;;;;;;5079529;28;20025;-70
2021/10/22 03:57:19;;;;;;;0.00;0.00;;;7.90;99.90;;;;;;5067802;28;20052;-69
2021/10/22 03:59:45;;;;;;;1.30;0.40;;;7.90;99.90;;;;;;5072162;28;20036;-69
2021/10/22 04:02:10;;;;;;;2.35;0.85;;;7.90;99.90;;;;;;5073643;28;20039;-70
2021/10/22 04:04:36;;;;;;;0.10;0.10;;;7.90;99.90;;;;;;5073780;28;20407;-68
2021/10/22 04:07:02;;;;;;;0.40;0.40;;;7.90;99.90;;;;;;5064097;28;20033;-70
2021/10/22 04:09:31;;;;;;;0.00;0.00;;;7.80;99.90;;;;;;5070361;28;20111;-70
2021/10/22 04:11:56;;;;;;;0.10;0.10;;;7.90;99.90;;;;;;5067310;28;20115;-69
2021/10/22 04:14:22;;;;;;;0.00;0.00;;;7.80;99.90;;;;;;5059123;28;20230;-70
2021/10/22 04:16:48;;;;;;;0.00;0.00;;;7.80;99.90;;;;;;5068880;28;20037;-69
2021/10/22 04:19:14;;;;;;;0.00;0.00;;;7.80;99.90;;;;;;5069721;28;20024;-69
2021/10/22 04:21:39;;;;;;;0.10;0.10;;;7.80;99.90;;;;;;5068603;28;20024;-70
2021/10/22 04:24:05;;;;;;;0.30;0.30;;;7.80;99.90;;;;;;5070581;28;20119;-70
2021/10/22 04:26:30;;;;;;;0.20;0.20;;;7.80;99.90;;;;;;5065136;28;20025;-69
2021/10/22 04:28:56;;;;;;;0.00;0.00;;;7.80;99.90;;;;;;5071462;28;20222;-70
2021/10/22 04:31:21;;;;;;;0.20;0.10;;;7.80;99.90;;;;;;5067190;28;20052;-70
2021/10/22 04:33:47;;;;;;;0.10;0.10;;;7.80;99.90;;;;;;5071734;28;20510;-69
2021/10/22 04:36:13;;;;;;;0.10;0.10;;;7.80;99.90;;;;;;5074184;28;20024;-69
2021/10/22 04:41:23;;;;;;;0.43;0.43;;;7.80;99.90;;;;;;5073267;28;20729;-70
2021/10/22 04:43:52;;;;;;;0.65;0.30;;;7.80;99.90;;;;;;5073513;28;20033;-69
2021/10/22 04:46:19;;;;;;;0.00;0.00;;;7.80;99.90;;;;;;5062681;28;20024;-70
2021/10/22 04:48:45;;;;;;;0.00;0.00;;;7.80;99.90;;;;;;5068332;28;20116;-70
2021/10/22 04:51:11;;;;;;;0.08;0.08;;;7.80;99.90;;;;;;5066534;28;20040;-70
2021/10/22 04:53:37;;;;;;;0.00;0.00;;;7.80;99.90;;;;;;5073486;28;20029;-70
2021/10/22 04:56:02;;;;;;;0.00;0.00;;;7.80;99.90;;;;;;5065178;28;20063;-69
2021/10/22 04:58:28;;;;;;;0.00;0.00;;;7.80;99.90;;;;;;5062881;28;20120;-69
2021/10/22 05:00:53;;;;;;;0.00;0.00;;;7.80;99.90;;;;;;5064432;28;20502;-70
2021/10/22 05:03:19;;;;;;;11.10;0.98;;;7.80;99.90;;;;;;5061675;28;20021;-70
2021/10/22 05:05:45;;;;;;;1.55;1.25;;;7.80;99.90;;;;;;5062154;28;20137;-69
2021/10/22 05:08:10;;;;;;;0.47;0.47;;;7.80;99.90;;;;;;5070780;28;20467;-69
2021/10/22 05:10:36;;;;;;;0.00;0.00;;;7.70;99.90;;;;;;5069568;28;20040;-70
2021/10/22 05:13:01;;;;;;;0.00;0.00;;;7.70;99.90;;;;;;5067104;28;20040;-69
2021/10/22 05:15:27;;;;;;;0.00;0.00;;;7.70;99.90;;;;;;5065475;28;20025;-69
2021/10/22 05:17:52;;;;;;;0.08;0.08;;;7.70;99.90;;;;;;5068165;28;20028;-69
2021/10/22 05:20:18;;;;;;;4.45;2.60;;;7.70;99.90;;;;;;5063888;28;20021;-70
2021/10/22 05:22:44;;;;;;;0.20;0.20;;;7.70;99.90;;;;;;5065286;28;20017;-70
2021/10/22 05:25:11;;;;;;;0.15;0.15;;;7.70;99.90;;;;;;5056507;28;20053;-71
2021/10/22 05:27:39;;;;;;;0.00;0.00;;;7.70;99.90;;;;;;5059078;28;20082;-70
2021/10/22 05:30:06;;;;;;;0.10;0.10;;;7.70;99.90;;;;;;5064195;28;20028;-70
2021/10/22 05:32:32;;;;;;;0.00;0.00;;;7.70;99.90;;;;;;5064484;28;20517;-70
2021/10/22 05:34:57;;;;;;;0.00;0.00;;;7.70;99.90;;;;;;5055147;28;20029;-70
2021/10/22 05:37:23;;;;;;;0.00;0.00;;;7.70;99.90;;;;;;5068888;28;20024;-69
2021/10/22 05:39:49;;;;;;;0.00;0.00;;;7.70;99.90;;;;;;5064664;28;20017;-69
2021/10/22 05:42:15;;;;;;;0.00;0.00;;;7.70;99.90;;;;;;5064689;28;20024;-69
2021/10/22 05:44:40;;;;;;;0.05;0.05;;;7.70;99.90;;;;;;5064059;28;20155;-71
2021/10/22 05:47:07;;;;;;;0.00;0.00;;;7.70;99.90;;;;;;5066444;28;20079;-71
2021/10/22 05:49:32;;;;;;;0.00;0.00;;;7.70;99.90;;;;;;5064029;28;20025;-71
2021/10/22 05:51:58;;;;;;;0.20;0.20;;;7.70;99.90;;;;;;5050916;28;20414;-71
2021/10/22 05:54:23;;;;;;;1.30;1.20;;;7.70;99.90;;;;;;5068354;28;20033;-74
2021/10/22 05:56:49;;;;;;;0.20;0.20;;;7.70;99.90;;;;;;5064375;28;20074;-76
2021/10/22 05:59:16;;;;;;;0.30;0.22;;;7.70;99.90;;;;;;5067840;28;20024;-74
2021/10/22 06:01:42;;;;;;;0.00;0.00;;;7.70;99.90;;;;;;5060146;28;20040;-75
2021/10/22 06:04:07;;;;;;;0.93;0.28;;;7.70;99.90;;;;;;5056176;28;20025;-75
2021/10/22 06:06:33;;;;;;;0.10;0.10;;;7.80;99.90;;;;;;5064021;28;20040;-75
2021/10/22 06:09:14;;;;;;;0.10;0.10;;;7.80;99.90;;;;;;5058840;28;20059;-75
2021/10/22 06:11:40;;;;;;;0.10;0.10;;;7.80;99.90;;;;;;5062767;28;20071;-75
2021/10/22 06:14:06;;;;;;;0.08;0.08;;;7.90;99.90;;;;;;5060856;28;20648;-76
2021/10/22 06:16:32;;;;;;;1.55;1.10;;;7.90;99.90;;;;;;5060297;28;20077;-78
2021/10/22 06:19:02;;;;;;;0.00;0.00;;;7.90;99.90;;;;;;5056753;28;20379;-75
2021/10/22 06:21:53;;;;;;;0.00;0.00;;;8.00;99.90;;;;;;5061665;28;20029;-74
2021/10/22 06:24:18;;;;;;;2.22;0.43;;;8.00;99.90;;;;;;5066999;28;20045;-75
2021/10/22 06:26:44;;;;;;;0.57;0.57;;;8.10;99.90;;;;;;5064973;28;20078;-74
2021/10/22 06:29:11;;;;;;;0.13;0.13;;;8.10;99.90;;;;;;5058822;28;20078;-74
2021/10/22 06:31:38;;;;;;;0.10;0.10;;;8.20;99.90;;;;;;5054133;28;20056;-74
2021/10/22 06:34:07;;;;;;;0.10;0.10;;;8.20;99.90;;;;;;5063318;28;20031;-75
2021/10/22 06:36:33;;;;;;;0.00;0.00;;;8.20;99.90;;;;;;5057193;28;20880;-74
2021/10/22 06:38:59;;;;;;;0.03;0.03;;;8.20;99.90;;;;;;5060862;28;20033;-73
2021/10/22 06:41:24;;;;;;;0.10;0.10;;;8.20;99.90;;;;;;5064046;28;20081;-73
2021/10/22 06:43:50;;;;;;;0.10;0.10;;;8.30;99.90;;;;;;5055713;28;20690;-69
2021/10/22 06:46:17;;;;;;;0.10;0.10;;;8.30;99.90;;;;;;5053191;28;20068;-68
2021/10/22 06:48:44;;;;;;;0.08;0.08;;;8.30;99.90;;;;;;5056841;28;20024;-70
2021/10/22 06:51:11;;;;;;;1.15;0.35;;;8.40;99.90;;;;;;5057062;28;20035;-71
2021/10/22 06:53:38;;;;;;;0.98;0.40;;;8.40;99.90;;;;;;5058717;28;20040;-69
2021/10/22 06:56:04;;;;;;;0.00;0.00;;;8.40;99.90;;;;;;5053122;28;21215;-68
2021/10/22 06:58:30;;;;;;;0.43;0.43;;;8.40;99.90;;;;;;5053226;28;20060;-70
2021/10/22 07:00:55;;;;;;;0.17;0.17;;;8.50;99.90;;;;;;5057426;28;20079;-69
2021/10/22 07:03:25;;;;;;;0.10;0.10;;;8.50;99.90;;;;;;5053766;28;20046;-77
2021/10/22 07:08:19;;;;;;;0.85;0.85;;;8.60;99.90;;;;;;5048283;28;20052;-72
2021/10/22 07:10:45;;;;;;;0.00;0.00;;;8.60;99.90;;;;;;5051388;28;20475;-71
2021/10/22 07:13:11;;;;;;;0.47;0.47;;;8.60;99.90;;;;;;5050352;28;20025;-72
2021/10/22 07:15:37;;;;;;;0.00;0.00;;;8.70;99.90;;;;;;5050227;28;20626;-74
2021/10/22 07:18:03;;;;;;;11.88;0.90;;;8.70;99.90;;;;;;5048899;28;20039;-81
2021/10/22 07:20:29;;;;;;;0.10;0.10;;;8.80;99.90;;;;;;5050812;28;20103;-72
2021/10/22 07:23:02;;;;;;;0.08;0.08;;;8.80;99.90;;;;;;5052676;28;20021;-73
2021/10/22 07:25:28;;;;;;;0.00;0.00;;;8.80;99.80;;;;;;5049042;28;20040;-69
2021/10/22 07:27:54;;;;;;;0.38;0.38;;;8.90;99.70;;;;;;5056478;28;20474;-69
2021/10/22 07:30:19;;;;;;;0.38;0.38;;;8.90;99.80;;;;;;5052825;28;20029;-70
2021/10/22 07:32:47;;;;;;;0.00;0.00;;;8.90;99.60;;;;;;5053262;28;20035;-70
2021/10/22 07:35:14;;;;;;;0.28;0.28;;;8.90;99.30;;;;;;5050491;28;20040;-68
2021/10/22 07:37:40;;;;;;;0.10;0.10;;;8.90;98.70;;;;;;5054673;28;20064;-69
2021/10/22 07:40:06;;;;;;;1.85;1.30;;;8.90;99.00;;;;;;5056727;28;20053;-71
2021/10/22 07:42:33;;;;;;;0.73;0.73;;;8.90;98.80;;;;;;5048124;28;20055;-68
2021/10/22 07:45:00;;;;;;;0.00;0.00;;;8.90;98.60;;;;;;5055039;28;20452;-69
2021/10/22 07:47:31;;;;;;;10.52;2.50;;;9.00;98.70;;;;;;5055775;28;20036;-69
2021/10/22 07:49:57;;;;;;;0.52;0.52;;;9.00;98.30;;;;;;5053016;28;20021;-70
2021/10/22 07:52:24;;;;;;;0.00;0.00;;;9.00;98.60;;;;;;5051815;28;20043;-69
2021/10/22 07:54:51;;;;;;;0.10;0.10;;;9.00;98.20;;;;;;5052675;28;20056;-68
2021/10/22 07:57:18;;;;;;;1.08;1.00;;;9.10;98.10;;;;;;5052682;28;20054;-68
2021/10/22 07:59:44;;;;;;;0.03;0.03;;;9.10;97.70;;;;;;5051646;28;20029;-68
2021/10/22 08:02:14;;;;;;;0.00;0.00;;;9.10;97.80;;;;;;5050866;28;20081;-69
2021/10/22 08:04:44;;;;;;;0.10;0.10;;;9.10;97.70;;;;;;5054096;28;20483;-69
2021/10/22 08:07:11;;;;;;;0.10;0.10;;;9.10;97.50;;;;;;5057097;28;20037;-74
2021/10/22 08:09:36;;;;;;;0.45;0.45;;;9.10;97.50;;;;;;5051237;28;20800;-69
2021/10/22 08:12:03;;;;;;;0.30;0.30;;;9.10;97.50;;;;;;5049648;28;20028;-69
2021/10/22 08:14:29;;;;;;;2.85;0.52;;;9.10;97.50;;;;;;5056228;28;20561;-68
2021/10/22 08:16:55;;;;;;;0.63;0.57;;;9.10;96.80;;;;;;5052946;28;20037;-69
2021/10/22 08:19:20;;;;;;;0.20;0.20;;;9.10;97.10;;;;;;5057608;28;20020;-69
2021/10/22 08:24:30;;;;;;;0.25;0.25;;;9.10;97.10;;;;;;5050407;28;20162;-70
2021/10/22 08:26:56;;;;;;;0.60;0.60;;;9.20;96.90;;;;;;5057228;28;20024;-69
2021/10/22 08:29:25;;;;;;;0.00;0.00;;;9.20;96.50;;;;;;5057763;28;20075;-73
2021/10/22 08:31:51;;;;;;;0.15;0.15;;;9.20;96.50;;;;;;5063607;28;20077;-72
2021/10/22 08:34:16;;;;;;;0.00;0.00;;;9.20;96.70;;;;;;5059540;28;20108;-75
2021/10/22 08:36:43;;;;;;;3.15;1.85;;;9.20;96.30;;;;;;5058129;28;20077;-73
2021/10/22 08:39:09;;;;;;;0.00;0.00;;;9.30;96.60;;;;;;5059019;28;20067;-73
2021/10/22 08:41:36;;;;;;;1.65;1.27;;;9.30;96.30;;;;;;5064763;28;20430;-74
2021/10/22 08:44:03;;;;;;;0.00;0.00;;;9.30;96.20;;;;;;5063712;28;20096;-73
2021/10/22 08:46:28;;;;;;;0.10;0.10;;;9.30;96.00;;;;;;5057505;28;20024;-75
2021/10/22 08:48:54;;;;;;;0.70;0.65;;;9.30;96.40;;;;;;5061067;28;20114;-74
2021/10/22 08:51:20;;;;;;;4.03;0.70;;;9.40;95.60;;;;;;5054846;28;20023;-73
2021/10/22 08:53:48;;;;;;;1.67;0.95;;;9.40;95.60;;;;;;5063263;28;20047;-73
2021/10/22 08:56:13;;;;;;;0.10;0.10;;;9.50;95.40;;;;;;5049899;28;20168;-74
2021/10/22 08:58:39;;;;;;;0.00;0.00;;;9.50;95.30;;;;;;5060893;28;20032;-74
2021/10/22 09:01:05;;;;;;;0.00;0.00;;;9.60;95.20;;;;;;5059495;28;20048;-73
2021/10/22 09:03:38;;;;;;;1.13;1.02;;;9.60;94.80;;;;;;5056633;28;20261;-73
2021/10/22 09:06:13;;;;;;;36.17;1.13;;;9.70;94.80;;;;;;5067497;28;20682;-74
2021/10/22 09:08:42;;;;;;;0.30;0.30;;;9.80;94.50;;;;;;5054864;28;20521;-73
2021/10/22 09:11:23;;;;;;;0.28;0.28;;;9.80;94.70;;;;;;5060079;28;20502;-73
2021/10/22 09:14:26;;;;;;;;;;;9.90;94.50;;;;;;5067177;28;20041;-74
2021/10/22 09:16:53;;;;;;;0.00;0.00;;;10.00;93.60;;;;;;5006698;28;19909;-73
2021/10/22 09:19:41;;;;;;;0.00;0.00;;;10.10;93.80;;;;;;5049264;28;20029;-74
2021/10/22 09:22:25;;;;;;;0.00;0.00;;;10.20;93.60;;;;;;5063427;28;20054;-73
2021/10/22 09:24:56;;;;;;;0.00;0.00;;;10.30;93.00;;;;;;5067737;28;20500;-73
2021/10/22 09:27:42;;;;;;;0.00;0.00;;;10.30;92.80;;;;;;5063447;28;20028;-75
2021/10/22 09:30:46;;;;;;;0.30;0.30;;;10.30;92.60;;;;;;5056926;28;20029;-75
2021/10/22 09:33:11;;;;;;;0.30;0.30;;;10.20;92.70;;;;;;5059641;28;20035;-75
2021/10/22 09:35:37;;;;;;;0.10;0.10;;;10.20;92.80;;;;;;5062331;28;20024;-74
2021/10/22 09:38:18;;;;;;;1.77;0.95;;;10.20;92.80;;;;;;5059405;28;20482;-74
2021/10/22 09:40:46;;;;;;;0.00;0.00;;;10.20;92.60;;;;;;5063375;28;20077;-75
2021/10/22 09:43:20;;;;;;;0.03;0.03;;;10.20;92.70;;;;;;5057945;28;20029;-74
2021/10/22 09:45:48;;;;;;;0.10;0.10;;;10.20;92.80;;;;;;5060582;28;20087;-74
2021/10/22 09:48:23;;;;;;;0.80;0.80;;;10.20;92.60;;;;;;5059052;28;20361;-74
2021/10/22 09:50:49;;;;;;;0.00;0.00;;;10.20;92.90;;;;;;5057227;28;20033;-74
2021/10/22 09:53:45;;;;;;;0.08;0.08;;;10.30;92.80;;;;;;5061070;28;20378;-74
2021/10/22 09:56:18;;;;;;;0.00;0.00;;;10.30;92.80;;;;;;5033103;28;20519;-74
2021/10/22 09:58:53;;;;;;;0.20;0.20;;;10.40;93.00;;;;;;5055030;28;20064;-74
2021/10/22 10:01:18;;;;;;;0.10;0.10;;;10.30;93.20;;;;;;5062947;28;20035;-75
2021/10/22 10:03:44;;;;;;;0.17;0.10;;;10.30;94.50;;;;;;5068781;28;20107;-76
2021/10/22 10:06:10;;;;;;;0.15;0.15;;;10.30;94.90;;;;;;5054214;28;20104;-74
2021/10/22 10:08:38;;;;;;;11.43;1.92;;;10.20;94.90;;;;;;5063799;28;20032;-74
2021/10/22 10:11:04;;;;;;;0.30;0.30;;;10.20;94.80;;;;;;5065761;28;20071;-74
2021/10/22 10:13:35;;;;;;;0.00;0.00;;;10.30;94.70;;;;;;5061994;28;20399;-74
2021/10/22 10:16:07;;;;;;;0.73;0.73;;;10.30;94.50;;;;;;5054176;28;20082;-74
2021/10/22 10:18:41;;;;;;;0.00;0.00;;;10.20;93.70;;;;;;5059007;28;20095;-74
2021/10/22 10:21:11;;;;;;;2.85;1.27;;;10.20;93.90;;;;;;5064423;28;20017;-74
2021/10/22 10:23:42;;;;;;;0.08;0.08;;;10.10;94.30;;;;;;5057857;28;20071;-74
2021/10/22 10:26:28;;;;;;;0.80;0.80;;;10.20;93.60;;;;;;5061775;28;20107;-72
2021/10/22 10:28:55;;;;;;;0.05;0.05;;;10.10;93.90;;;;;;5063428;28;20024;-74
2021/10/22 10:31:46;;;;;;;0.03;0.03;;;10.20;93.70;;;;;;5061358;28;20108;-71
2021/10/22 10:34:27;;;;;;;1.67;0.47;;;10.20;93.60;;;;;;5044655;28;20075;-71
2021/10/22 10:36:54;;;;;;;0.10;0.10;;;10.20;93.30;;;;;;5065171;28;20530;-72
2021/10/22 10:39:41;;;;;;;0.00;0.00;;;10.20;93.20;;;;;;5064315;28;20020;-72
2021/10/22 10:42:32;;;;;;;0.00;0.00;;;10.20;93.30;;;;;;5063954;28;20016;-72
2021/10/22 10:45:19;;;;;;;0.00;0.00;;;10.30;93.40;;;;;;5064887;28;20487;-72
2021/10/22 10:47:53;;;;;;;0.00;0.00;;;10.30;93.60;;;;;;5061255;28;20039;-72
2021/10/22 10:50:40;;;;;;;7.80;1.55;;;10.30;93.70;;;;;;5047919;28;20021;-72
2021/10/22 10:53:14;;;;;;;0.00;0.00;;;10.40;93.30;;;;;;5062980;28;20036;-72
2021/10/22 10:55:46;;;;;;;0.32;0.32;;;10.40;93.40;;;;;;5062877;28;20052;-72
2021/10/22 10:58:16;;;;;;;0.75;0.75;;;10.30;93.80;;;;;;5064182;28;20561;-73
2021/10/22 11:00:47;;;;;;;0.00;0.00;;;10.30;93.60;;;;;;5063747;28;20012;-72
2021/10/22 11:03:16;;;;;;;0.13;0.13;;;10.30;93.50;;;;;;5065184;28;20032;-72
2021/10/22 11:05:45;;;;;;;0.00;0.00;;;10.30;93.70;;;;;;5055812;28;20100;-72
2021/10/22 11:08:25;;;;;;;0.03;0.03;;;10.30;93.60;;;;;;5061320;28;20024;-71
2021/10/22 11:11:10;;;;;;;0.03;0.03;;;10.20;93.60;;;;;;5060935;28;20027;-71
2021/10/22 11:13:41;;;;;;;0.32;0.32;;;10.20;93.70;;;;;;5063470;28;20349;-71
2021/10/22 11:16:41;;;;;;;;;;;10.30;94.10;;;;;;5061689;28;20028;-71
2021/10/22 11:19:22;;;;;;;0.08;0.08;;;10.30;94.00;;;;;;5065127;28;20406;-71
2021/10/22 11:21:51;;;;;;;0.10;0.10;;;10.30;94.20;;;;;;5064461;28;20471;-72
2021/10/22 11:24:21;;;;;;;0.00;0.00;;;10.20;93.70;;;;;;5063561;28;20045;-71
2021/10/22 11:27:02;;;;;;;2.22;0.40;;;10.20;93.80;;;;;;5062717;28;20082;-71
2021/10/22 11:29:33;;;;;;;0.00;0.00;;;10.30;93.60;;;;;;5064972;28;20631;-72
2021/10/22 11:32:04;;;;;;;0.20;0.20;;;10.30;93.50;;;;;;5062211;28;20032;-72
2021/10/22 11:34:38;;;;;;;0.10;0.10;;;10.30;93.20;;;;;;5058802;28;20031;-72
2021/10/22 11:37:09;;;;;;;0.20;0.20;;;10.30;92.90;;;;;;5054981;28;20123;-71
2021/10/22 11:39:37;;;;;;;1.27;1.17;;;10.40;93.10;;;;;;5057748;28;20070;-71
2021/10/22 11:42:30;;;;;;;0.10;0.10;;;10.40;92.90;;;;;;5061764;28;20050;-71
2021/10/22 11:45:18;;;;;;;0.68;0.55;;;10.40;92.50;;;;;;5061782;28;20012;-71
2021/10/22 11:47:49;;;;;;;1.92;0.75;;;10.50;92.60;;;;;;5055407;28;20060;-71
2021/10/22 11:50:21;;;;;;;0.50;0.50;;;10.60;92.30;;;;;;5055558;28;20052;-71
2021/10/22 11:53:14;;;;;;;0.00;0.00;;;10.60;92.00;;;;;;5062437;28;20036;-73
2021/10/22 11:56:02;;;;;;;0.47;0.47;;;10.60;91.80;;;;;;5058354;28;20040;-72
2021/10/22 11:58:34;;;;;;;0.10;0.10;;;10.60;91.70;;;;;;5061677;28;20052;-71
2021/10/22 12:01:01;;;;;;;0.10;0.10;;;10.70;91.60;;;;;;5060112;28;20033;-71
2021/10/22 12:03:37;;;;;;;0.77;0.77;;;10.60;91.70;;;;;;5059635;28;20116;-72
2021/10/22 12:06:13;;;;;;;0.10;0.10;;;10.60;92.20;;;;;;5062624;28;20025;-70
2021/10/22 12:08:38;;;;;;;0.00;0.00;;;10.60;92.10;;;;;;5056705;28;20115;-71
2021/10/22 12:11:03;;;;;;;0.00;0.00;;;10.60;92.50;;;;;;5061131;28;20112;-78
2021/10/22 12:13:33;;;;;;;0.00;0.00;;;10.60;92.50;;;;;;5063001;28;20487;-73
2021/10/22 12:16:12;;;;;;;0.25;0.25;;;10.50;92.90;;;;;;5053076;28;20033;-71
2021/10/22 12:18:44;;;;;;;0.25;0.25;;;10.60;93.20;;;;;;5043892;28;20085;-71
2021/10/22 12:21:11;;;;;;;0.30;0.30;;;10.50;93.50;;;;;;5040961;28;20024;-72
2021/10/22 12:23:38;;;;;;;0.00;0.00;;;10.50;93.30;;;;;;5053928;28;20037;-73
2021/10/22 12:26:03;;;;;;;0.00;0.00;;;10.50;93.60;;;;;;5066265;28;20507;-73
2021/10/22 12:28:29;;;;;;;0.35;0.32;;;10.50;93.90;;;;;;5049684;28;20120;-72
2021/10/22 12:31:10;;;;;;;1.52;0.77;;;10.50;94.50;;;;;;5054410;28;20086;-74
2021/10/22 12:33:36;;;;;;;0.28;0.28;;;10.40;94.10;;;;;;5053184;28;20169;-72
2021/10/22 12:36:15;;;;;;;0.10;0.10;;;10.50;94.20;;;;;;5061417;28;20055;-73
2021/10/22 12:38:40;;;;;;;0.63;0.63;;;10.50;93.50;;;;;;5066540;28;20074;-74
2021/10/22 12:41:10;;;;;;;0.55;0.20;;;10.50;93.50;;;;;;5064307;28;20024;-73
2021/10/22 12:43:36;;;;;;;3.20;0.90;;;10.60;93.20;;;;;;5060110;28;20029;-74
2021/10/22 12:46:12;;;;;;;0.13;0.13;;;10.60;92.90;;;;;;5063483;28;20622;-74
2021/10/22 12:48:48;;;;;;;2.33;0.35;;;10.70;92.70;;;;;;5066388;28;20471;-74
2021/10/22 12:51:16;;;;;;;3.58;1.42;;;10.70;92.70;;;;;;5069012;28;20136;-74
2021/10/22 12:53:44;;;;;;;0.85;0.75;;;10.80;92.60;;;;;;5069147;28;20062;-74
2021/10/22 12:56:15;;;;;;;0.00;0.00;;;10.80;92.40;;;;;;5070458;28;20116;-73
2021/10/22 12:58:58;;;;;;;1.05;1.00;;;10.80;92.60;;;;;;5060126;28;20031;-74
2021/10/22 13:01:41;;;;;;;1.55;1.00;;;10.90;92.60;;;;;;5068125;28;20483;-75
2021/10/22 13:04:08;;;;;;;0.05;0.03;;;10.90;93.80;;;;;;5055972;28;20235;-73
2021/10/22 13:12:34;;;;;;;0.00;0.00;;;10.70;97.40;;;;;;5059884;28;20163;-73
2021/10/22 13:20:28;;;;;;;0.43;0.43;;;10.50;99.90;;;;;;5070481;28;20078;-74
2021/10/22 13:22:56;;;;;;;0.00;0.00;;;10.30;99.90;;;;;;5058539;28;20024;-74
2021/10/22 13:25:21;;;;;;;0.10;0.10;;;10.10;99.90;;;;;;5067195;28;20145;-74
2021/10/22 13:27:47;;;;;;;0.63;0.50;;;10.00;99.90;;;;;;5067031;28;20050;-74
2021/10/22 13:30:17;;;;;;;0.00;0.00;;;9.90;99.90;;;;;;5060911;28;20040;-74
2021/10/22 13:32:44;;;;;;;3.20;1.35;;;9.90;99.90;;;;;;5055358;28;20029;-75
2021/10/22 13:35:11;;;;;;;0.20;0.20;;;9.90;99.90;;;;;;5062071;28;20677;-74